sensor_id;sensor_type;location;lat;lon;timestamp;temperature;humidity
45044;DHT22;30784;48.490;9.688;2022-11-18T00:01:15;11.30;59.50
45044;DHT22;30784;48.490;9.688;2022-11-18T00:03:42;11.30;59.40
45044;DHT22;30784;48.490;9.688;2022-11-18T00:06:20;11.30;59.60
45044;DHT22;30784;48.490;9.688;2022-11-18T00:08:46;11.30;59.50
45044;DHT22;30784;48.490;9.688;2022-11-18T00:11:14;11.30;59.60
45044;DHT22;30784;48.490;9.688;2022-11-18T00:13:58;11.20;59.70
45044;DHT22;30784;48.490;9.688;2022-11-18T00:16:43;11.20;59.70
45044;DHT22;30784;48.490;9.688;2022-11-18T00:19:08;11.20;59.70
45044;DHT22;30784;48.490;9.688;2022-11-18T00:21:34;11.10;59.80
45044;DHT22;30784;48.490;9.688;2022-11-18T00:23:59;11.10;59.90
45044;DHT22;30784;48.490;9.688;2022-11-18T00:26:25;11.10;60.00
45044;DHT22;30784;48.490;9.688;2022-11-18T00:28:51;11.00;60.60
45044;DHT22;30784;48.490;9.688;2022-11-18T00:31:16;11.00;60.20
45044;DHT22;30784;48.490;9.688;2022-11-18T00:33:42;11.00;60.30
45044;DHT22;30784;48.490;9.688;2022-11-18T00:36:09;10.90;60.50
45044;DHT22;30784;48.490;9.688;2022-11-18T00:38:36;10.90;60.70
45044;DHT22;30784;48.490;9.688;2022-11-18T00:41:12;10.80;60.70
45044;DHT22;30784;48.490;9.688;2022-11-18T00:43:39;10.80;60.60
45044;DHT22;30784;48.490;9.688;2022-11-18T00:46:06;10.80;60.80
45044;DHT22;30784;48.490;9.688;2022-11-18T00:48:33;10.80;60.90
45044;DHT22;30784;48.490;9.688;2022-11-18T00:51:08;10.70;61.10
45044;DHT22;30784;48.490;9.688;2022-11-18T00:53:34;10.70;61.00
45044;DHT22;30784;48.490;9.688;2022-11-18T00:55:59;10.70;61.20
45044;DHT22;30784;48.490;9.688;2022-11-18T00:58:26;10.70;61.10
45044;DHT22;30784;48.490;9.688;2022-11-18T01:00:52;10.70;61.00
45044;DHT22;30784;48.490;9.688;2022-11-18T01:03:18;10.70;61.20
45044;DHT22;30784;48.490;9.688;2022-11-18T01:05:44;10.70;61.70
45044;DHT22;30784;48.490;9.688;2022-11-18T01:08:11;10.70;61.20
45044;DHT22;30784;48.490;9.688;2022-11-18T01:10:38;10.70;61.30
45044;DHT22;30784;48.490;9.688;2022-11-18T01:13:05;10.70;61.30
45044;DHT22;30784;48.490;9.688;2022-11-18T01:15:49;10.70;61.50
45044;DHT22;30784;48.490;9.688;2022-11-18T01:18:15;10.70;61.30
45044;DHT22;30784;48.490;9.688;2022-11-18T01:20:42;10.70;61.40
45044;DHT22;30784;48.490;9.688;2022-11-18T01:23:08;10.70;61.40
45044;DHT22;30784;48.490;9.688;2022-11-18T01:25:35;10.70;61.50
45044;DHT22;30784;48.490;9.688;2022-11-18T01:28:04;10.70;61.40
45044;DHT22;30784;48.490;9.688;2022-11-18T01:30:35;10.70;61.60
45044;DHT22;30784;48.490;9.688;2022-11-18T01:33:03;10.70;61.50
45044;DHT22;30784;48.490;9.688;2022-11-18T01:35:35;10.70;61.30
45044;DHT22;30784;48.490;9.688;2022-11-18T01:38:02;10.70;61.40
45044;DHT22;30784;48.490;9.688;2022-11-18T01:40:28;10.70;61.50
45044;DHT22;30784;48.490;9.688;2022-11-18T01:42:54;10.70;62.10
45044;DHT22;30784;48.490;9.688;2022-11-18T01:45:39;10.70;61.60
45044;DHT22;30784;48.490;9.688;2022-11-18T01:50:40;10.70;61.60
45044;DHT22;30784;48.490;9.688;2022-11-18T01:53:13;10.70;61.80
45044;DHT22;30784;48.490;9.688;2022-11-18T01:55:43;10.70;62.10
45044;DHT22;30784;48.490;9.688;2022-11-18T01:58:22;10.70;61.70
45044;DHT22;30784;48.490;9.688;2022-11-18T02:00:50;10.70;61.60
45044;DHT22;30784;48.490;9.688;2022-11-18T02:03:16;10.70;61.70
45044;DHT22;30784;48.490;9.688;2022-11-18T02:05:43;10.70;61.80
45044;DHT22;30784;48.490;9.688;2022-11-18T02:08:10;10.70;61.90
45044;DHT22;30784;48.490;9.688;2022-11-18T02:10:36;10.70;61.90
45044;DHT22;30784;48.490;9.688;2022-11-18T02:13:02;10.70;61.90
45044;DHT22;30784;48.490;9.688;2022-11-18T02:21:24;10.70;61.80
45044;DHT22;30784;48.490;9.688;2022-11-18T02:26:32;10.70;61.90
45044;DHT22;30784;48.490;9.688;2022-11-18T02:29:16;10.70;62.00
45044;DHT22;30784;48.490;9.688;2022-11-18T02:32:02;10.70;61.80
45044;DHT22;30784;48.490;9.688;2022-11-18T02:34:41;10.70;61.80
45044;DHT22;30784;48.490;9.688;2022-11-18T02:40:13;10.80;62.00
45044;DHT22;30784;48.490;9.688;2022-11-18T02:42:43;10.80;62.00
45044;DHT22;30784;48.490;9.688;2022-11-18T02:45:13;10.80;62.00
45044;DHT22;30784;48.490;9.688;2022-11-18T02:47:42;10.80;62.10
45044;DHT22;30784;48.490;9.688;2022-11-18T02:50:11;10.80;62.10
45044;DHT22;30784;48.490;9.688;2022-11-18T02:52:39;10.80;62.10
45044;DHT22;30784;48.490;9.688;2022-11-18T02:55:09;10.80;62.10
45044;DHT22;30784;48.490;9.688;2022-11-18T02:57:36;10.90;62.30
45044;DHT22;30784;48.490;9.688;2022-11-18T03:00:03;10.90;62.10
45044;DHT22;30784;48.490;9.688;2022-11-18T03:02:49;10.90;62.20
45044;DHT22;30784;48.490;9.688;2022-11-18T03:07:56;10.90;62.00
45044;DHT22;30784;48.490;9.688;2022-11-18T03:10:29;10.90;62.10
45044;DHT22;30784;48.490;9.688;2022-11-18T03:13:23;10.90;62.20
45044;DHT22;30784;48.490;9.688;2022-11-18T03:15:59;10.80;62.00
45044;DHT22;30784;48.490;9.688;2022-11-18T03:21:36;10.90;62.10
45044;DHT22;30784;48.490;9.688;2022-11-18T03:24:10;10.90;61.80
45044;DHT22;30784;48.490;9.688;2022-11-18T03:26:42;11.00;62.10
45044;DHT22;30784;48.490;9.688;2022-11-18T03:29:22;11.00;62.20
45044;DHT22;30784;48.490;9.688;2022-11-18T03:31:53;11.00;62.00
45044;DHT22;30784;48.490;9.688;2022-11-18T03:34:27;11.00;62.00
45044;DHT22;30784;48.490;9.688;2022-11-18T03:36:56;11.00;62.10
45044;DHT22;30784;48.490;9.688;2022-11-18T03:39:24;11.00;62.00
45044;DHT22;30784;48.490;9.688;2022-11-18T03:42:01;11.00;62.00
45044;DHT22;30784;48.490;9.688;2022-11-18T03:44:32;10.90;62.00
45044;DHT22;30784;48.490;9.688;2022-11-18T03:47:26;10.90;62.20
45044;DHT22;30784;48.490;9.688;2022-11-18T03:49:59;10.90;61.90
45044;DHT22;30784;48.490;9.688;2022-11-18T03:52:29;10.90;62.20
45044;DHT22;30784;48.490;9.688;2022-11-18T03:54:57;10.90;62.20
45044;DHT22;30784;48.490;9.688;2022-11-18T03:57:44;10.80;62.10
45044;DHT22;30784;48.490;9.688;2022-11-18T04:00:13;10.80;61.80
45044;DHT22;30784;48.490;9.688;2022-11-18T04:02:40;10.80;61.80
45044;DHT22;30784;48.490;9.688;2022-11-18T04:05:08;10.70;61.60
45044;DHT22;30784;48.490;9.688;2022-11-18T04:07:43;10.70;61.70
45044;DHT22;30784;48.490;9.688;2022-11-18T04:10:17;10.70;61.70
45044;DHT22;30784;48.490;9.688;2022-11-18T04:12:48;10.60;61.80
45044;DHT22;30784;48.490;9.688;2022-11-18T04:15:16;10.60;61.70
45044;DHT22;30784;48.490;9.688;2022-11-18T04:17:42;10.60;61.70
45044;DHT22;30784;48.490;9.688;2022-11-18T04:20:19;10.60;61.80
45044;DHT22;30784;48.490;9.688;2022-11-18T04:22:45;10.50;61.70
45044;DHT22;30784;48.490;9.688;2022-11-18T04:25:11;10.50;61.90
45044;DHT22;30784;48.490;9.688;2022-11-18T04:27:37;10.50;62.00
45044;DHT22;30784;48.490;9.688;2022-11-18T04:30:04;10.50;62.00
45044;DHT22;30784;48.490;9.688;2022-11-18T04:32:30;10.40;62.00
45044;DHT22;30784;48.490;9.688;2022-11-18T04:34:56;10.40;62.00
45044;DHT22;30784;48.490;9.688;2022-11-18T04:37:21;10.40;62.10
45044;DHT22;30784;48.490;9.688;2022-11-18T04:39:47;10.40;62.00
45044;DHT22;30784;48.490;9.688;2022-11-18T04:42:12;10.30;62.10
45044;DHT22;30784;48.490;9.688;2022-11-18T04:44:38;10.40;62.10
45044;DHT22;30784;48.490;9.688;2022-11-18T04:47:05;10.30;62.20
45044;DHT22;30784;48.490;9.688;2022-11-18T04:49:31;10.40;62.20
45044;DHT22;30784;48.490;9.688;2022-11-18T04:51:57;10.30;62.20
45044;DHT22;30784;48.490;9.688;2022-11-18T04:54:24;10.20;62.20
45044;DHT22;30784;48.490;9.688;2022-11-18T04:56:50;10.20;62.00
45044;DHT22;30784;48.490;9.688;2022-11-18T04:59:19;10.20;62.00
45044;DHT22;30784;48.490;9.688;2022-11-18T05:01:46;10.20;62.20
45044;DHT22;30784;48.490;9.688;2022-11-18T05:04:14;10.10;62.20
45044;DHT22;30784;48.490;9.688;2022-11-18T05:06:40;10.10;62.40
45044;DHT22;30784;48.490;9.688;2022-11-18T05:09:05;10.10;62.50
45044;DHT22;30784;48.490;9.688;2022-11-18T05:11:31;10.10;62.60
45044;DHT22;30784;48.490;9.688;2022-11-18T05:14:16;10.10;62.60
45044;DHT22;30784;48.490;9.688;2022-11-18T05:16:41;10.10;62.60
45044;DHT22;30784;48.490;9.688;2022-11-18T05:19:07;10.00;62.60
45044;DHT22;30784;48.490;9.688;2022-11-18T05:21:33;10.00;62.50
45044;DHT22;30784;48.490;9.688;2022-11-18T05:23:59;10.00;62.70
45044;DHT22;30784;48.490;9.688;2022-11-18T05:26:25;10.00;62.60
45044;DHT22;30784;48.490;9.688;2022-11-18T05:28:50;10.00;62.80
45044;DHT22;30784;48.490;9.688;2022-11-18T05:31:17;10.00;62.80
45044;DHT22;30784;48.490;9.688;2022-11-18T05:33:43;10.00;62.90
45044;DHT22;30784;48.490;9.688;2022-11-18T05:36:11;10.00;62.90
45044;DHT22;30784;48.490;9.688;2022-11-18T05:38:37;10.00;62.90
45044;DHT22;30784;48.490;9.688;2022-11-18T05:41:03;10.00;63.00
45044;DHT22;30784;48.490;9.688;2022-11-18T05:43:30;9.90;62.80
45044;DHT22;30784;48.490;9.688;2022-11-18T05:45:56;9.90;62.60
45044;DHT22;30784;48.490;9.688;2022-11-18T05:48:23;9.90;62.60
45044;DHT22;30784;48.490;9.688;2022-11-18T05:50:51;9.90;62.40
45044;DHT22;30784;48.490;9.688;2022-11-18T05:53:18;9.80;61.80
45044;DHT22;30784;48.490;9.688;2022-11-18T05:58:16;9.70;61.70
45044;DHT22;30784;48.490;9.688;2022-11-18T06:00:42;9.70;61.60
45044;DHT22;30784;48.490;9.688;2022-11-18T06:03:14;9.60;61.30
45044;DHT22;30784;48.490;9.688;2022-11-18T06:05:41;9.60;61.40
45044;DHT22;30784;48.490;9.688;2022-11-18T06:08:09;9.50;61.40
45044;DHT22;30784;48.490;9.688;2022-11-18T06:10:36;9.50;61.60
45044;DHT22;30784;48.490;9.688;2022-11-18T06:13:07;9.40;61.40
45044;DHT22;30784;48.490;9.688;2022-11-18T06:15:37;9.30;61.50
45044;DHT22;30784;48.490;9.688;2022-11-18T06:18:26;9.30;61.80
45044;DHT22;30784;48.490;9.688;2022-11-18T06:20:55;9.30;61.60
45044;DHT22;30784;48.490;9.688;2022-11-18T06:23:21;9.30;61.80
45044;DHT22;30784;48.490;9.688;2022-11-18T06:25:47;9.20;61.80
45044;DHT22;30784;48.490;9.688;2022-11-18T06:28:14;9.20;61.90
45044;DHT22;30784;48.490;9.688;2022-11-18T06:30:40;9.20;61.90
45044;DHT22;30784;48.490;9.688;2022-11-18T06:33:06;9.10;62.00
45044;DHT22;30784;48.490;9.688;2022-11-18T06:35:32;9.10;62.10
45044;DHT22;30784;48.490;9.688;2022-11-18T06:37:59;9.10;62.10
45044;DHT22;30784;48.490;9.688;2022-11-18T06:40:25;9.10;62.10
45044;DHT22;30784;48.490;9.688;2022-11-18T06:42:50;9.10;62.10
45044;DHT22;30784;48.490;9.688;2022-11-18T06:45:34;9.00;62.10
45044;DHT22;30784;48.490;9.688;2022-11-18T06:48:00;9.00;62.10
45044;DHT22;30784;48.490;9.688;2022-11-18T06:50:26;9.10;62.30
45044;DHT22;30784;48.490;9.688;2022-11-18T06:52:53;9.00;62.40
45044;DHT22;30784;48.490;9.688;2022-11-18T06:55:18;9.00;62.40
45044;DHT22;30784;48.490;9.688;2022-11-18T06:57:44;9.00;62.60
45044;DHT22;30784;48.490;9.688;2022-11-18T07:00:10;9.00;63.20
45044;DHT22;30784;48.490;9.688;2022-11-18T07:02:36;9.00;62.70
45044;DHT22;30784;48.490;9.688;2022-11-18T07:05:02;9.00;62.80
45044;DHT22;30784;48.490;9.688;2022-11-18T07:07:28;9.00;62.80
45044;DHT22;30784;48.490;9.688;2022-11-18T07:09:53;9.00;62.80
45044;DHT22;30784;48.490;9.688;2022-11-18T07:12:19;9.00;63.00
45044;DHT22;30784;48.490;9.688;2022-11-18T07:14:44;9.00;63.00
45044;DHT22;30784;48.490;9.688;2022-11-18T07:17:10;9.10;63.20
45044;DHT22;30784;48.490;9.688;2022-11-18T07:19:35;9.10;63.20
45044;DHT22;30784;48.490;9.688;2022-11-18T07:22:01;9.10;63.20
45044;DHT22;30784;48.490;9.688;2022-11-18T07:24:26;9.10;63.30
45044;DHT22;30784;48.490;9.688;2022-11-18T07:26:52;9.10;63.20
45044;DHT22;30784;48.490;9.688;2022-11-18T07:29:18;9.10;63.30
45044;DHT22;30784;48.490;9.688;2022-11-18T07:31:44;9.10;63.40
45044;DHT22;30784;48.490;9.688;2022-11-18T07:34:11;9.20;63.40
45044;DHT22;30784;48.490;9.688;2022-11-18T07:36:37;9.10;63.40
45044;DHT22;30784;48.490;9.688;2022-11-18T07:39:04;9.10;63.40
45044;DHT22;30784;48.490;9.688;2022-11-18T07:41:30;9.20;63.50
45044;DHT22;30784;48.490;9.688;2022-11-18T07:43:58;9.20;63.60
45044;DHT22;30784;48.490;9.688;2022-11-18T07:46:32;9.20;63.60
45044;DHT22;30784;48.490;9.688;2022-11-18T07:49:00;9.20;63.60
45044;DHT22;30784;48.490;9.688;2022-11-18T07:51:28;9.20;63.70
45044;DHT22;30784;48.490;9.688;2022-11-18T07:53:54;9.30;63.70
45044;DHT22;30784;48.490;9.688;2022-11-18T07:56:20;9.30;63.70
45044;DHT22;30784;48.490;9.688;2022-11-18T07:58:46;9.30;63.80
45044;DHT22;30784;48.490;9.688;2022-11-18T08:01:18;9.30;63.90
45044;DHT22;30784;48.490;9.688;2022-11-18T08:03:44;9.40;63.70
45044;DHT22;30784;48.490;9.688;2022-11-18T08:06:13;9.40;63.80
45044;DHT22;30784;48.490;9.688;2022-11-18T08:08:39;9.40;63.70
45044;DHT22;30784;48.490;9.688;2022-11-18T08:11:07;9.50;63.70
45044;DHT22;30784;48.490;9.688;2022-11-18T08:13:33;9.50;63.80
45044;DHT22;30784;48.490;9.688;2022-11-18T08:15:59;9.50;63.70
45044;DHT22;30784;48.490;9.688;2022-11-18T08:18:27;9.60;63.80
45044;DHT22;30784;48.490;9.688;2022-11-18T08:20:53;9.50;63.60
45044;DHT22;30784;48.490;9.688;2022-11-18T08:23:19;9.60;63.70
45044;DHT22;30784;48.490;9.688;2022-11-18T08:25:45;9.50;63.70
45044;DHT22;30784;48.490;9.688;2022-11-18T08:28:11;9.60;63.80
45044;DHT22;30784;48.490;9.688;2022-11-18T08:30:38;9.60;63.90
45044;DHT22;30784;48.490;9.688;2022-11-18T08:33:04;9.60;63.90
45044;DHT22;30784;48.490;9.688;2022-11-18T08:35:31;9.70;63.90
45044;DHT22;30784;48.490;9.688;2022-11-18T08:37:57;9.60;63.80
45044;DHT22;30784;48.490;9.688;2022-11-18T08:40:23;9.60;63.80
45044;DHT22;30784;48.490;9.688;2022-11-18T08:42:49;9.70;63.70
45044;DHT22;30784;48.490;9.688;2022-11-18T08:45:14;9.70;63.60
45044;DHT22;30784;48.490;9.688;2022-11-18T08:47:40;9.70;63.60
45044;DHT22;30784;48.490;9.688;2022-11-18T08:50:08;9.70;63.70
45044;DHT22;30784;48.490;9.688;2022-11-18T08:52:34;9.70;63.60
45044;DHT22;30784;48.490;9.688;2022-11-18T08:55:00;9.70;63.60
45044;DHT22;30784;48.490;9.688;2022-11-18T08:57:26;9.70;63.40
45044;DHT22;30784;48.490;9.688;2022-11-18T08:59:51;9.80;63.50
45044;DHT22;30784;48.490;9.688;2022-11-18T09:02:19;9.70;63.60
45044;DHT22;30784;48.490;9.688;2022-11-18T09:04:46;9.70;63.20
45044;DHT22;30784;48.490;9.688;2022-11-18T09:07:13;9.70;63.40
45044;DHT22;30784;48.490;9.688;2022-11-18T09:09:39;9.70;63.50
45044;DHT22;30784;48.490;9.688;2022-11-18T09:12:05;9.60;63.30
45044;DHT22;30784;48.490;9.688;2022-11-18T09:14:31;9.60;63.30
45044;DHT22;30784;48.490;9.688;2022-11-18T09:16:56;9.60;63.20
45044;DHT22;30784;48.490;9.688;2022-11-18T09:19:22;9.60;63.20
45044;DHT22;30784;48.490;9.688;2022-11-18T09:21:47;9.60;63.20
45044;DHT22;30784;48.490;9.688;2022-11-18T09:24:13;9.60;63.10
45044;DHT22;30784;48.490;9.688;2022-11-18T09:26:39;9.60;63.20
45044;DHT22;30784;48.490;9.688;2022-11-18T09:29:06;9.50;63.20
45044;DHT22;30784;48.490;9.688;2022-11-18T09:31:33;9.60;63.30
45044;DHT22;30784;48.490;9.688;2022-11-18T09:33:59;9.50;63.40
45044;DHT22;30784;48.490;9.688;2022-11-18T09:36:26;9.50;63.40
45044;DHT22;30784;48.490;9.688;2022-11-18T09:38:51;9.50;63.40
45044;DHT22;30784;48.490;9.688;2022-11-18T09:41:42;9.50;63.50
45044;DHT22;30784;48.490;9.688;2022-11-18T09:47:08;9.50;63.50
45044;DHT22;30784;48.490;9.688;2022-11-18T09:49:40;9.50;63.50
45044;DHT22;30784;48.490;9.688;2022-11-18T09:52:25;9.50;63.70
45044;DHT22;30784;48.490;9.688;2022-11-18T09:54:51;9.50;63.70
45044;DHT22;30784;48.490;9.688;2022-11-18T09:57:23;9.60;63.90
45044;DHT22;30784;48.490;9.688;2022-11-18T09:59:49;9.60;64.10
45044;DHT22;30784;48.490;9.688;2022-11-18T10:02:36;9.60;64.00
45044;DHT22;30784;48.490;9.688;2022-11-18T10:05:19;9.60;64.10
45044;DHT22;30784;48.490;9.688;2022-11-18T10:08:08;9.60;64.00
45044;DHT22;30784;48.490;9.688;2022-11-18T10:13:44;9.70;63.90
45044;DHT22;30784;48.490;9.688;2022-11-18T10:24:37;9.70;64.00
45044;DHT22;30784;48.490;9.688;2022-11-18T10:27:09;9.80;64.10
45044;DHT22;30784;48.490;9.688;2022-11-18T10:29:35;9.80;64.20
45044;DHT22;30784;48.490;9.688;2022-11-18T10:32:06;9.90;64.20
45044;DHT22;30784;48.490;9.688;2022-11-18T10:34:34;9.90;64.20
45044;DHT22;30784;48.490;9.688;2022-11-18T10:37:28;9.90;64.30
45044;DHT22;30784;48.490;9.688;2022-11-18T10:39:56;9.90;64.30
45044;DHT22;30784;48.490;9.688;2022-11-18T10:42:39;10.00;64.50
45044;DHT22;30784;48.490;9.688;2022-11-18T10:47:41;10.00;64.40
45044;DHT22;30784;48.490;9.688;2022-11-18T10:50:36;10.10;64.60
45044;DHT22;30784;48.490;9.688;2022-11-18T10:56:00;10.10;64.60
45044;DHT22;30784;48.490;9.688;2022-11-18T10:58:28;10.20;64.60
45044;DHT22;30784;48.490;9.688;2022-11-18T11:01:25;10.20;64.80
45044;DHT22;30784;48.490;9.688;2022-11-18T11:04:05;10.20;64.60
45044;DHT22;30784;48.490;9.688;2022-11-18T11:06:36;10.30;64.80
45044;DHT22;30784;48.490;9.688;2022-11-18T11:14:34;10.30;64.50
45044;DHT22;30784;48.490;9.688;2022-11-18T11:19:51;10.30;64.70
45044;DHT22;30784;48.490;9.688;2022-11-18T11:22:21;10.40;65.00
45044;DHT22;30784;48.490;9.688;2022-11-18T11:24:47;10.40;65.00
45044;DHT22;30784;48.490;9.688;2022-11-18T11:27:41;10.50;65.00
45044;DHT22;30784;48.490;9.688;2022-11-18T11:30:21;10.50;64.60
45044;DHT22;30784;48.490;9.688;2022-11-18T11:35:22;10.60;64.50
45044;DHT22;30784;48.490;9.688;2022-11-18T11:40:40;10.70;64.50
45044;DHT22;30784;48.490;9.688;2022-11-18T11:43:44;10.70;64.60
45044;DHT22;30784;48.490;9.688;2022-11-18T11:46:41;10.70;64.40
45044;DHT22;30784;48.490;9.688;2022-11-18T11:49:23;10.80;64.30
45044;DHT22;30784;48.490;9.688;2022-11-18T11:51:57;10.80;64.20
45044;DHT22;30784;48.490;9.688;2022-11-18T11:57:26;10.90;64.10
45044;DHT22;30784;48.490;9.688;2022-11-18T12:00:11;10.90;63.90
45044;DHT22;30784;48.490;9.688;2022-11-18T12:05:36;10.90;63.70
45044;DHT22;30784;48.490;9.688;2022-11-18T12:08:25;10.90;63.50
45044;DHT22;30784;48.490;9.688;2022-11-18T12:10:59;10.90;63.50
45044;DHT22;30784;48.490;9.688;2022-11-18T12:13:39;10.90;63.30
45044;DHT22;30784;48.490;9.688;2022-11-18T12:19:15;10.90;63.10
45044;DHT22;30784;48.490;9.688;2022-11-18T12:26:44;10.80;62.50
45044;DHT22;30784;48.490;9.688;2022-11-18T12:31:57;10.70;62.20
45044;DHT22;30784;48.490;9.688;2022-11-18T12:34:40;10.60;62.10
45044;DHT22;30784;48.490;9.688;2022-11-18T12:39:55;10.50;62.10
45044;DHT22;30784;48.490;9.688;2022-11-18T12:42:50;10.40;62.10
45044;DHT22;30784;48.490;9.688;2022-11-18T12:45:49;10.40;62.50
45044;DHT22;30784;48.490;9.688;2022-11-18T12:48:38;10.40;62.70
45044;DHT22;30784;48.490;9.688;2022-11-18T12:53:45;10.30;62.90
45044;DHT22;30784;48.490;9.688;2022-11-18T12:58:36;10.20;63.10
45044;DHT22;30784;48.490;9.688;2022-11-18T13:01:07;10.20;63.20
45044;DHT22;30784;48.490;9.688;2022-11-18T13:03:35;10.20;63.40
45044;DHT22;30784;48.490;9.688;2022-11-18T13:06:11;10.20;63.80
45044;DHT22;30784;48.490;9.688;2022-11-18T13:08:39;10.20;64.00
45044;DHT22;30784;48.490;9.688;2022-11-18T13:11:09;10.30;63.90
45044;DHT22;30784;48.490;9.688;2022-11-18T13:13:57;10.30;63.90
45044;DHT22;30784;48.490;9.688;2022-11-18T13:16:42;10.30;63.80
45044;DHT22;30784;48.490;9.688;2022-11-18T13:19:27;10.30;64.00
45044;DHT22;30784;48.490;9.688;2022-11-18T13:21:57;10.40;64.00
45044;DHT22;30784;48.490;9.688;2022-11-18T13:24:45;10.40;64.10
45044;DHT22;30784;48.490;9.688;2022-11-18T13:30:08;10.40;63.80
45044;DHT22;30784;48.490;9.688;2022-11-18T13:32:35;10.40;63.80
45044;DHT22;30784;48.490;9.688;2022-11-18T13:35:13;10.40;63.70
45044;DHT22;30784;48.490;9.688;2022-11-18T13:37:55;10.50;63.60
45044;DHT22;30784;48.490;9.688;2022-11-18T13:40:31;10.50;63.70
45044;DHT22;30784;48.490;9.688;2022-11-18T13:43:03;10.50;63.60
45044;DHT22;30784;48.490;9.688;2022-11-18T13:45:29;10.50;63.50
45044;DHT22;30784;48.490;9.688;2022-11-18T13:48:06;10.50;63.10
45044;DHT22;30784;48.490;9.688;2022-11-18T13:50:47;10.40;62.70
45044;DHT22;30784;48.490;9.688;2022-11-18T13:53:36;10.40;62.70
45044;DHT22;30784;48.490;9.688;2022-11-18T13:56:07;10.40;62.80
45044;DHT22;30784;48.490;9.688;2022-11-18T13:58:50;10.40;62.80
45044;DHT22;30784;48.490;9.688;2022-11-18T14:02:10;10.40;62.80
45044;DHT22;30784;48.490;9.688;2022-11-18T14:04:55;10.30;63.00
45044;DHT22;30784;48.490;9.688;2022-11-18T14:07:33;10.40;63.20
45044;DHT22;30784;48.490;9.688;2022-11-18T14:10:13;10.40;63.30
45044;DHT22;30784;48.490;9.688;2022-11-18T14:12:43;10.40;63.40
45044;DHT22;30784;48.490;9.688;2022-11-18T14:18:17;10.50;63.60
45044;DHT22;30784;48.490;9.688;2022-11-18T14:20:53;10.50;63.30
45044;DHT22;30784;48.490;9.688;2022-11-18T14:23:26;10.50;63.20
45044;DHT22;30784;48.490;9.688;2022-11-18T14:25:53;10.50;63.20
45044;DHT22;30784;48.490;9.688;2022-11-18T14:28:30;10.70;63.20
45044;DHT22;30784;48.490;9.688;2022-11-18T14:36:43;10.60;62.90
45044;DHT22;30784;48.490;9.688;2022-11-18T14:39:24;10.60;62.80
45044;DHT22;30784;48.490;9.688;2022-11-18T14:41:51;10.60;62.90
45044;DHT22;30784;48.490;9.688;2022-11-18T14:44:18;10.70;62.90
45044;DHT22;30784;48.490;9.688;2022-11-18T14:46:47;10.60;62.90
45044;DHT22;30784;48.490;9.688;2022-11-18T14:49:34;10.60;62.70
45044;DHT22;30784;48.490;9.688;2022-11-18T14:52:00;10.60;62.90
45044;DHT22;30784;48.490;9.688;2022-11-18T14:54:29;10.60;62.60
45044;DHT22;30784;48.490;9.688;2022-11-18T14:57:00;10.60;62.60
45044;DHT22;30784;48.490;9.688;2022-11-18T14:59:27;10.60;62.70
45044;DHT22;30784;48.490;9.688;2022-11-18T15:01:52;10.60;62.60
45044;DHT22;30784;48.490;9.688;2022-11-18T15:04:18;10.60;62.70
45044;DHT22;30784;48.490;9.688;2022-11-18T15:06:49;10.60;62.40
45044;DHT22;30784;48.490;9.688;2022-11-18T15:09:22;10.60;62.50
45044;DHT22;30784;48.490;9.688;2022-11-18T15:11:47;10.60;62.50
45044;DHT22;30784;48.490;9.688;2022-11-18T15:14:13;10.60;62.50
45044;DHT22;30784;48.490;9.688;2022-11-18T15:16:38;10.50;62.50
45044;DHT22;30784;48.490;9.688;2022-11-18T15:19:05;10.50;62.30
45044;DHT22;30784;48.490;9.688;2022-11-18T15:21:32;10.60;62.30
45044;DHT22;30784;48.490;9.688;2022-11-18T15:23:57;10.50;61.90
45044;DHT22;30784;48.490;9.688;2022-11-18T15:26:34;10.50;61.80
45044;DHT22;30784;48.490;9.688;2022-11-18T15:29:01;10.40;61.70
45044;DHT22;30784;48.490;9.688;2022-11-18T15:31:27;10.40;61.90
45044;DHT22;30784;48.490;9.688;2022-11-18T15:33:53;10.40;61.90
45044;DHT22;30784;48.490;9.688;2022-11-18T15:36:23;10.40;61.90
45044;DHT22;30784;48.490;9.688;2022-11-18T15:38:50;10.30;61.90
45044;DHT22;30784;48.490;9.688;2022-11-18T15:41:20;10.30;62.10
45044;DHT22;30784;48.490;9.688;2022-11-18T15:43:46;10.30;62.10
45044;DHT22;30784;48.490;9.688;2022-11-18T15:46:13;10.20;62.10
45044;DHT22;30784;48.490;9.688;2022-11-18T15:48:39;10.20;62.10
45044;DHT22;30784;48.490;9.688;2022-11-18T15:51:05;10.20;62.20
45044;DHT22;30784;48.490;9.688;2022-11-18T15:53:31;10.20;62.20
45044;DHT22;30784;48.490;9.688;2022-11-18T15:56:19;10.10;62.30
45044;DHT22;30784;48.490;9.688;2022-11-18T15:59:05;10.10;62.30
45044;DHT22;30784;48.490;9.688;2022-11-18T16:01:33;10.10;62.20
45044;DHT22;30784;48.490;9.688;2022-11-18T16:04:00;10.10;62.20
45044;DHT22;30784;48.490;9.688;2022-11-18T16:06:26;10.10;62.20
45044;DHT22;30784;48.490;9.688;2022-11-18T16:08:51;10.00;62.20
45044;DHT22;30784;48.490;9.688;2022-11-18T16:11:18;10.00;62.20
45044;DHT22;30784;48.490;9.688;2022-11-18T16:14:03;10.00;62.30
45044;DHT22;30784;48.490;9.688;2022-11-18T16:16:29;9.90;62.20
45044;DHT22;30784;48.490;9.688;2022-11-18T16:18:56;9.90;62.30
45044;DHT22;30784;48.490;9.688;2022-11-18T16:21:23;9.80;62.20
45044;DHT22;30784;48.490;9.688;2022-11-18T16:23:48;9.80;62.30
45044;DHT22;30784;48.490;9.688;2022-11-18T16:26:14;9.80;62.20
45044;DHT22;30784;48.490;9.688;2022-11-18T16:28:39;9.80;62.30
45044;DHT22;30784;48.490;9.688;2022-11-18T16:31:06;9.70;62.40
45044;DHT22;30784;48.490;9.688;2022-11-18T16:33:50;9.70;62.40
45044;DHT22;30784;48.490;9.688;2022-11-18T16:36:16;9.70;62.50
45044;DHT22;30784;48.490;9.688;2022-11-18T16:38:41;9.70;62.60
45044;DHT22;30784;48.490;9.688;2022-11-18T16:41:07;9.70;62.60
45044;DHT22;30784;48.490;9.688;2022-11-18T16:43:53;9.70;62.70
45044;DHT22;30784;48.490;9.688;2022-11-18T16:46:19;9.60;62.60
45044;DHT22;30784;48.490;9.688;2022-11-18T16:48:44;9.60;62.60
45044;DHT22;30784;48.490;9.688;2022-11-18T16:51:24;9.60;62.60
45044;DHT22;30784;48.490;9.688;2022-11-18T16:53:58;9.60;62.60
45044;DHT22;30784;48.490;9.688;2022-11-18T16:56:27;9.60;62.70
45044;DHT22;30784;48.490;9.688;2022-11-18T16:59:04;9.60;62.80
45044;DHT22;30784;48.490;9.688;2022-11-18T17:01:30;9.50;62.70
45044;DHT22;30784;48.490;9.688;2022-11-18T17:03:57;9.50;62.70
45044;DHT22;30784;48.490;9.688;2022-11-18T17:06:24;9.50;62.80
45044;DHT22;30784;48.490;9.688;2022-11-18T17:08:50;9.50;62.90
45044;DHT22;30784;48.490;9.688;2022-11-18T17:11:16;9.50;62.90
45044;DHT22;30784;48.490;9.688;2022-11-18T17:13:42;9.50;63.00
45044;DHT22;30784;48.490;9.688;2022-11-18T17:16:18;9.50;63.00
45044;DHT22;30784;48.490;9.688;2022-11-18T17:18:45;9.40;63.00
45044;DHT22;30784;48.490;9.688;2022-11-18T17:21:13;9.40;63.00
45044;DHT22;30784;48.490;9.688;2022-11-18T17:23:42;9.40;63.10
45044;DHT22;30784;48.490;9.688;2022-11-18T17:26:07;9.50;63.20
45044;DHT22;30784;48.490;9.688;2022-11-18T17:28:34;9.40;63.20
45044;DHT22;30784;48.490;9.688;2022-11-18T17:31:05;9.40;63.20